sensor_id;sensor_type;location;lat;lon;timestamp;P1;durP1;ratioP1;P2;durP2;ratioP2
62990;SDS011;49084;48.204;16.202;2023-07-13T00:00:24;2.13;;;1.70;;
62990;SDS011;49084;48.204;16.202;2023-07-13T00:02:50;3.33;;;2.08;;
62990;SDS011;49084;48.204;16.202;2023-07-13T00:05:18;1.70;;;1.60;;
62990;SDS011;49084;48.204;16.202;2023-07-13T00:07:45;2.47;;;1.48;;
62990;SDS011;49084;48.204;16.202;2023-07-13T00:10:11;2.72;;;1.30;;
62990;SDS011;49084;48.204;16.202;2023-07-13T00:12:37;2.22;;;1.70;;
62990;SDS011;49084;48.204;16.202;2023-07-13T00:15:05;5.75;;;1.83;;
62990;SDS011;49084;48.204;16.202;2023-07-13T00:17:47;1.90;;;1.70;;
62990;SDS011;49084;48.204;16.202;2023-07-13T00:20:14;2.83;;;1.95;;
62990;SDS011;49084;48.204;16.202;2023-07-13T00:22:39;2.33;;;1.30;;
62990;SDS011;49084;48.204;16.202;2023-07-13T00:25:05;1.40;;;1.30;;
62990;SDS011;49084;48.204;16.202;2023-07-13T00:27:31;3.25;;;1.88;;
62990;SDS011;49084;48.204;16.202;2023-07-13T00:29:57;1.92;;;1.20;;
62990;SDS011;49084;48.204;16.202;2023-07-13T00:32:23;2.13;;;1.25;;
62990;SDS011;49084;48.204;16.202;2023-07-13T00:34:52;1.90;;;1.50;;
62990;SDS011;49084;48.204;16.202;2023-07-13T00:37:18;3.45;;;1.73;;
62990;SDS011;49084;48.204;16.202;2023-07-13T00:39:44;1.55;;;1.08;;
62990;SDS011;49084;48.204;16.202;2023-07-13T00:42:09;2.03;;;1.10;;
62990;SDS011;49084;48.204;16.202;2023-07-13T00:44:36;1.40;;;1.20;;
62990;SDS011;49084;48.204;16.202;2023-07-13T00:47:01;2.38;;;1.35;;
62990;SDS011;49084;48.204;16.202;2023-07-13T00:49:28;1.55;;;1.00;;
62990;SDS011;49084;48.204;16.202;2023-07-13T00:52:03;2.13;;;1.33;;
62990;SDS011;49084;48.204;16.202;2023-07-13T00:54:33;1.65;;;1.33;;
62990;SDS011;49084;48.204;16.202;2023-07-13T00:57:05;3.13;;;1.30;;
62990;SDS011;49084;48.204;16.202;2023-07-13T00:59:34;2.10;;;1.60;;
62990;SDS011;49084;48.204;16.202;2023-07-13T01:02:01;2.05;;;1.30;;
62990;SDS011;49084;48.204;16.202;2023-07-13T01:04:28;1.77;;;1.20;;
62990;SDS011;49084;48.204;16.202;2023-07-13T01:06:53;1.55;;;1.13;;
62990;SDS011;49084;48.204;16.202;2023-07-13T01:09:19;3.60;;;0.90;;
62990;SDS011;49084;48.204;16.202;2023-07-13T01:11:46;2.30;;;0.90;;
62990;SDS011;49084;48.204;16.202;2023-07-13T01:14:12;1.40;;;0.70;;
62990;SDS011;49084;48.204;16.202;2023-07-13T01:16:38;0.90;;;0.90;;
62990;SDS011;49084;48.204;16.202;2023-07-13T01:22:17;0.95;;;0.80;;
62990;SDS011;49084;48.204;16.202;2023-07-13T01:24:44;3.60;;;0.88;;
62990;SDS011;49084;48.204;16.202;2023-07-13T01:27:14;1.08;;;0.73;;
62990;SDS011;49084;48.204;16.202;2023-07-13T01:29:42;1.73;;;0.90;;
62990;SDS011;49084;48.204;16.202;2023-07-13T01:32:10;0.55;;;0.55;;
62990;SDS011;49084;48.204;16.202;2023-07-13T01:34:37;2.20;;;0.70;;
62990;SDS011;49084;48.204;16.202;2023-07-13T01:37:06;2.95;;;0.70;;
62990;SDS011;49084;48.204;16.202;2023-07-13T01:41:58;3.38;;;0.82;;
62990;SDS011;49084;48.204;16.202;2023-07-13T01:44:23;0.95;;;0.57;;
62990;SDS011;49084;48.204;16.202;2023-07-13T01:46:49;1.00;;;0.55;;
62990;SDS011;49084;48.204;16.202;2023-07-13T01:49:15;0.50;;;0.47;;
62990;SDS011;49084;48.204;16.202;2023-07-13T01:51:41;3.10;;;0.80;;
62990;SDS011;49084;48.204;16.202;2023-07-13T01:54:06;0.50;;;0.50;;
62990;SDS011;49084;48.204;16.202;2023-07-13T01:56:32;3.28;;;0.50;;
62990;SDS011;49084;48.204;16.202;2023-07-13T01:58:58;2.40;;;0.70;;
62990;SDS011;49084;48.204;16.202;2023-07-13T02:01:23;1.58;;;0.77;;
62990;SDS011;49084;48.204;16.202;2023-07-13T02:03:49;0.68;;;0.65;;
62990;SDS011;49084;48.204;16.202;2023-07-13T02:06:14;3.75;;;0.70;;
62990;SDS011;49084;48.204;16.202;2023-07-13T02:08:40;1.50;;;0.68;;
62990;SDS011;49084;48.204;16.202;2023-07-13T02:11:07;1.25;;;0.75;;
62990;SDS011;49084;48.204;16.202;2023-07-13T02:13:34;1.88;;;0.80;;
62990;SDS011;49084;48.204;16.202;2023-07-13T02:15:59;1.42;;;0.70;;
62990;SDS011;49084;48.204;16.202;2023-07-13T02:18:25;0.90;;;0.90;;
62990;SDS011;49084;48.204;16.202;2023-07-13T02:20:51;2.72;;;0.88;;
62990;SDS011;49084;48.204;16.202;2023-07-13T02:23:17;1.05;;;0.80;;
62990;SDS011;49084;48.204;16.202;2023-07-13T02:25:43;0.60;;;0.60;;
62990;SDS011;49084;48.204;16.202;2023-07-13T02:28:08;1.58;;;0.88;;
62990;SDS011;49084;48.204;16.202;2023-07-13T02:30:34;1.33;;;0.73;;
62990;SDS011;49084;48.204;16.202;2023-07-13T02:33:00;2.10;;;0.93;;
62990;SDS011;49084;48.204;16.202;2023-07-13T02:35:26;2.55;;;1.05;;
62990;SDS011;49084;48.204;16.202;2023-07-13T02:37:51;1.30;;;0.82;;
62990;SDS011;49084;48.204;16.202;2023-07-13T02:40:17;1.25;;;0.80;;
62990;SDS011;49084;48.204;16.202;2023-07-13T02:42:42;2.28;;;0.90;;
62990;SDS011;49084;48.204;16.202;2023-07-13T02:45:08;1.67;;;0.90;;
62990;SDS011;49084;48.204;16.202;2023-07-13T02:47:35;2.47;;;1.38;;
62990;SDS011;49084;48.204;16.202;2023-07-13T02:50:01;2.63;;;1.35;;
62990;SDS011;49084;48.204;16.202;2023-07-13T02:52:27;1.48;;;1.20;;
62990;SDS011;49084;48.204;16.202;2023-07-13T02:54:53;3.28;;;1.30;;
62990;SDS011;49084;48.204;16.202;2023-07-13T02:57:18;1.45;;;1.10;;
62990;SDS011;49084;48.204;16.202;2023-07-13T02:59:44;1.25;;;0.80;;
62990;SDS011;49084;48.204;16.202;2023-07-13T03:02:09;2.38;;;1.10;;
62990;SDS011;49084;48.204;16.202;2023-07-13T03:04:35;2.65;;;1.30;;
62990;SDS011;49084;48.204;16.202;2023-07-13T03:07:02;2.67;;;1.13;;
62990;SDS011;49084;48.204;16.202;2023-07-13T03:09:28;1.52;;;1.23;;
62990;SDS011;49084;48.204;16.202;2023-07-13T03:11:54;1.60;;;0.90;;
62990;SDS011;49084;48.204;16.202;2023-07-13T03:14:20;1.77;;;0.98;;
62990;SDS011;49084;48.204;16.202;2023-07-13T03:16:46;1.30;;;1.20;;
62990;SDS011;49084;48.204;16.202;2023-07-13T03:19:12;5.45;;;1.52;;
62990;SDS011;49084;48.204;16.202;2023-07-13T03:21:38;3.67;;;1.33;;
62990;SDS011;49084;48.204;16.202;2023-07-13T03:24:03;4.32;;;1.38;;
62990;SDS011;49084;48.204;16.202;2023-07-13T03:26:29;7.65;;;1.98;;
62990;SDS011;49084;48.204;16.202;2023-07-13T03:28:55;4.95;;;1.95;;
62990;SDS011;49084;48.204;16.202;2023-07-13T03:31:21;1.80;;;1.58;;
62990;SDS011;49084;48.204;16.202;2023-07-13T03:36:19;6.47;;;1.77;;
62990;SDS011;49084;48.204;16.202;2023-07-13T03:38:51;6.63;;;1.90;;
62990;SDS011;49084;48.204;16.202;2023-07-13T03:41:19;5.43;;;1.90;;
62990;SDS011;49084;48.204;16.202;2023-07-13T03:43:45;5.72;;;2.85;;
62990;SDS011;49084;48.204;16.202;2023-07-13T03:46:13;7.97;;;2.30;;
62990;SDS011;49084;48.204;16.202;2023-07-13T03:48:40;4.55;;;2.10;;
62990;SDS011;49084;48.204;16.202;2023-07-13T03:51:08;3.35;;;1.55;;
62990;SDS011;49084;48.204;16.202;2023-07-13T03:53:38;26.05;;;2.58;;
62990;SDS011;49084;48.204;16.202;2023-07-13T03:56:05;5.28;;;2.00;;
62990;SDS011;49084;48.204;16.202;2023-07-13T04:00:59;5.35;;;2.40;;
62990;SDS011;49084;48.204;16.202;2023-07-13T04:03:26;3.67;;;2.40;;
62990;SDS011;49084;48.204;16.202;2023-07-13T04:05:54;6.30;;;2.20;;
62990;SDS011;49084;48.204;16.202;2023-07-13T04:08:24;3.58;;;1.90;;
62990;SDS011;49084;48.204;16.202;2023-07-13T04:10:53;3.88;;;2.22;;
62990;SDS011;49084;48.204;16.202;2023-07-13T04:13:20;2.42;;;1.75;;
62990;SDS011;49084;48.204;16.202;2023-07-13T04:15:45;6.20;;;1.88;;
62990;SDS011;49084;48.204;16.202;2023-07-13T04:18:11;3.05;;;2.13;;
62990;SDS011;49084;48.204;16.202;2023-07-13T04:20:36;7.30;;;2.22;;
62990;SDS011;49084;48.204;16.202;2023-07-13T04:23:02;6.88;;;2.72;;
62990;SDS011;49084;48.204;16.202;2023-07-13T04:25:28;6.50;;;2.63;;
62990;SDS011;49084;48.204;16.202;2023-07-13T04:27:54;4.43;;;2.78;;
62990;SDS011;49084;48.204;16.202;2023-07-13T04:30:20;4.93;;;2.50;;
62990;SDS011;49084;48.204;16.202;2023-07-13T04:32:46;3.55;;;2.50;;
62990;SDS011;49084;48.204;16.202;2023-07-13T04:35:12;3.88;;;2.55;;
62990;SDS011;49084;48.204;16.202;2023-07-13T04:37:39;3.65;;;2.25;;
62990;SDS011;49084;48.204;16.202;2023-07-13T04:40:05;5.80;;;2.40;;
62990;SDS011;49084;48.204;16.202;2023-07-13T04:42:31;4.95;;;2.55;;
62990;SDS011;49084;48.204;16.202;2023-07-13T04:44:57;5.88;;;2.33;;
62990;SDS011;49084;48.204;16.202;2023-07-13T04:47:23;5.95;;;2.60;;
62990;SDS011;49084;48.204;16.202;2023-07-13T04:49:48;3.58;;;2.30;;
62990;SDS011;49084;48.204;16.202;2023-07-13T04:52:14;5.25;;;2.92;;
62990;SDS011;49084;48.204;16.202;2023-07-13T04:54:39;5.45;;;1.83;;
62990;SDS011;49084;48.204;16.202;2023-07-13T04:57:06;5.35;;;2.20;;
62990;SDS011;49084;48.204;16.202;2023-07-13T04:59:32;4.97;;;1.98;;
62990;SDS011;49084;48.204;16.202;2023-07-13T05:01:58;2.67;;;1.50;;
62990;SDS011;49084;48.204;16.202;2023-07-13T05:04:24;3.55;;;2.00;;
62990;SDS011;49084;48.204;16.202;2023-07-13T05:06:49;6.90;;;2.80;;
62990;SDS011;49084;48.204;16.202;2023-07-13T05:09:15;3.95;;;2.25;;
62990;SDS011;49084;48.204;16.202;2023-07-13T05:11:42;5.30;;;2.20;;
62990;SDS011;49084;48.204;16.202;2023-07-13T05:14:09;6.43;;;2.47;;
62990;SDS011;49084;48.204;16.202;2023-07-13T05:16:37;4.35;;;2.35;;
62990;SDS011;49084;48.204;16.202;2023-07-13T05:19:03;4.82;;;2.78;;
62990;SDS011;49084;48.204;16.202;2023-07-13T05:21:28;3.65;;;2.10;;
62990;SDS011;49084;48.204;16.202;2023-07-13T05:23:54;2.95;;;2.00;;
62990;SDS011;49084;48.204;16.202;2023-07-13T05:26:20;4.40;;;1.80;;
62990;SDS011;49084;48.204;16.202;2023-07-13T05:28:46;2.65;;;1.55;;
62990;SDS011;49084;48.204;16.202;2023-07-13T05:31:12;3.38;;;1.33;;
62990;SDS011;49084;48.204;16.202;2023-07-13T05:33:38;3.80;;;1.40;;
62990;SDS011;49084;48.204;16.202;2023-07-13T05:36:04;4.07;;;1.70;;
62990;SDS011;49084;48.204;16.202;2023-07-13T05:38:30;2.22;;;1.40;;
62990;SDS011;49084;48.204;16.202;2023-07-13T05:40:57;1.88;;;1.45;;
62990;SDS011;49084;48.204;16.202;2023-07-13T05:43:22;4.07;;;1.42;;
62990;SDS011;49084;48.204;16.202;2023-07-13T05:45:48;2.00;;;1.50;;
62990;SDS011;49084;48.204;16.202;2023-07-13T05:48:16;5.68;;;1.83;;
62990;SDS011;49084;48.204;16.202;2023-07-13T05:50:41;1.55;;;1.30;;
62990;SDS011;49084;48.204;16.202;2023-07-13T05:53:07;2.95;;;1.30;;
62990;SDS011;49084;48.204;16.202;2023-07-13T05:55:32;3.10;;;1.00;;
62990;SDS011;49084;48.204;16.202;2023-07-13T05:57:59;3.97;;;1.60;;
62990;SDS011;49084;48.204;16.202;2023-07-13T06:00:25;3.08;;;1.48;;
62990;SDS011;49084;48.204;16.202;2023-07-13T06:02:51;2.50;;;1.40;;
62990;SDS011;49084;48.204;16.202;2023-07-13T06:05:17;1.80;;;1.70;;
62990;SDS011;49084;48.204;16.202;2023-07-13T06:07:43;2.80;;;1.40;;
62990;SDS011;49084;48.204;16.202;2023-07-13T06:10:09;2.60;;;1.23;;
62990;SDS011;49084;48.204;16.202;2023-07-13T06:12:35;2.40;;;1.45;;
62990;SDS011;49084;48.204;16.202;2023-07-13T06:15:00;3.65;;;1.52;;
62990;SDS011;49084;48.204;16.202;2023-07-13T06:17:26;1.20;;;1.10;;
62990;SDS011;49084;48.204;16.202;2023-07-13T06:19:52;4.05;;;1.20;;
62990;SDS011;49084;48.204;16.202;2023-07-13T06:22:17;1.70;;;1.25;;
62990;SDS011;49084;48.204;16.202;2023-07-13T06:24:43;2.90;;;1.10;;
62990;SDS011;49084;48.204;16.202;2023-07-13T06:27:09;1.90;;;1.17;;
62990;SDS011;49084;48.204;16.202;2023-07-13T06:29:34;1.02;;;0.93;;
62990;SDS011;49084;48.204;16.202;2023-07-13T06:32:00;1.73;;;1.10;;
62990;SDS011;49084;48.204;16.202;2023-07-13T06:34:26;1.05;;;0.80;;
62990;SDS011;49084;48.204;16.202;2023-07-13T06:36:51;1.25;;;1.15;;
62990;SDS011;49084;48.204;16.202;2023-07-13T06:39:17;1.48;;;0.95;;
62990;SDS011;49084;48.204;16.202;2023-07-13T06:41:43;1.15;;;0.80;;
62990;SDS011;49084;48.204;16.202;2023-07-13T06:44:08;1.60;;;1.00;;
62990;SDS011;49084;48.204;16.202;2023-07-13T06:46:34;1.35;;;1.00;;
62990;SDS011;49084;48.204;16.202;2023-07-13T06:49:00;1.40;;;0.80;;
62990;SDS011;49084;48.204;16.202;2023-07-13T06:51:25;0.98;;;0.70;;
62990;SDS011;49084;48.204;16.202;2023-07-13T06:53:51;1.88;;;0.90;;
62990;SDS011;49084;48.204;16.202;2023-07-13T06:56:17;1.52;;;0.68;;
62990;SDS011;49084;48.204;16.202;2023-07-13T06:58:42;6.30;;;0.90;;
62990;SDS011;49084;48.204;16.202;2023-07-13T07:01:08;1.08;;;0.80;;
62990;SDS011;49084;48.204;16.202;2023-07-13T07:03:34;4.88;;;0.98;;
62990;SDS011;49084;48.204;16.202;2023-07-13T07:06:01;2.15;;;0.88;;
62990;SDS011;49084;48.204;16.202;2023-07-13T07:08:38;1.38;;;0.98;;
62990;SDS011;49084;48.204;16.202;2023-07-13T07:11:03;2.70;;;1.17;;
62990;SDS011;49084;48.204;16.202;2023-07-13T07:13:30;1.23;;;1.08;;
62990;SDS011;49084;48.204;16.202;2023-07-13T07:15:56;3.47;;;1.50;;
62990;SDS011;49084;48.204;16.202;2023-07-13T07:18:22;2.17;;;1.33;;
62990;SDS011;49084;48.204;16.202;2023-07-13T07:20:48;1.67;;;1.00;;
62990;SDS011;49084;48.204;16.202;2023-07-13T07:23:14;3.88;;;0.77;;
62990;SDS011;49084;48.204;16.202;2023-07-13T07:25:40;4.45;;;1.42;;
62990;SDS011;49084;48.204;16.202;2023-07-13T07:28:08;4.78;;;0.77;;
62990;SDS011;49084;48.204;16.202;2023-07-13T07:30:33;3.42;;;0.77;;
62990;SDS011;49084;48.204;16.202;2023-07-13T07:33:00;3.20;;;0.85;;
62990;SDS011;49084;48.204;16.202;2023-07-13T07:35:26;1.90;;;0.85;;
62990;SDS011;49084;48.204;16.202;2023-07-13T07:37:52;1.13;;;0.70;;
62990;SDS011;49084;48.204;16.202;2023-07-13T07:40:18;2.20;;;0.77;;
62990;SDS011;49084;48.204;16.202;2023-07-13T07:42:44;1.10;;;0.82;;
62990;SDS011;49084;48.204;16.202;2023-07-13T07:45:10;3.50;;;0.85;;
62990;SDS011;49084;48.204;16.202;2023-07-13T07:47:36;3.97;;;0.60;;
62990;SDS011;49084;48.204;16.202;2023-07-13T07:50:02;2.47;;;0.77;;
62990;SDS011;49084;48.204;16.202;2023-07-13T07:52:28;0.57;;;0.57;;
62990;SDS011;49084;48.204;16.202;2023-07-13T07:54:54;1.77;;;0.75;;
62990;SDS011;49084;48.204;16.202;2023-07-13T07:57:20;1.83;;;0.70;;
62990;SDS011;49084;48.204;16.202;2023-07-13T07:59:46;0.63;;;0.60;;
62990;SDS011;49084;48.204;16.202;2023-07-13T08:02:11;2.35;;;0.75;;
62990;SDS011;49084;48.204;16.202;2023-07-13T08:04:37;1.80;;;0.40;;
62990;SDS011;49084;48.204;16.202;2023-07-13T08:07:03;0.98;;;0.45;;
62990;SDS011;49084;48.204;16.202;2023-07-13T08:09:28;1.50;;;0.70;;
62990;SDS011;49084;48.204;16.202;2023-07-13T08:11:54;2.35;;;0.55;;
62990;SDS011;49084;48.204;16.202;2023-07-13T08:14:20;2.38;;;0.63;;
62990;SDS011;49084;48.204;16.202;2023-07-13T08:16:46;0.70;;;0.63;;
62990;SDS011;49084;48.204;16.202;2023-07-13T08:19:12;2.22;;;1.00;;
62990;SDS011;49084;48.204;16.202;2023-07-13T08:21:37;1.13;;;0.88;;
62990;SDS011;49084;48.204;16.202;2023-07-13T08:24:03;3.38;;;1.10;;
62990;SDS011;49084;48.204;16.202;2023-07-13T08:26:29;1.83;;;1.05;;
62990;SDS011;49084;48.204;16.202;2023-07-13T08:28:54;2.22;;;1.20;;
62990;SDS011;49084;48.204;16.202;2023-07-13T08:31:20;2.13;;;1.10;;
62990;SDS011;49084;48.204;16.202;2023-07-13T08:33:46;1.30;;;1.08;;
62990;SDS011;49084;48.204;16.202;2023-07-13T08:36:11;1.98;;;0.90;;
62990;SDS011;49084;48.204;16.202;2023-07-13T08:38:37;2.75;;;0.80;;
62990;SDS011;49084;48.204;16.202;2023-07-13T08:41:09;1.75;;;1.00;;
62990;SDS011;49084;48.204;16.202;2023-07-13T08:43:39;1.85;;;0.75;;
62990;SDS011;49084;48.204;16.202;2023-07-13T08:51:24;1.63;;;1.00;;
62990;SDS011;49084;48.204;16.202;2023-07-13T08:54:00;1.88;;;1.35;;
62990;SDS011;49084;48.204;16.202;2023-07-13T08:56:28;1.25;;;1.10;;
62990;SDS011;49084;48.204;16.202;2023-07-13T09:04:41;3.83;;;1.50;;
62990;SDS011;49084;48.204;16.202;2023-07-13T09:09:59;4.85;;;1.45;;
62990;SDS011;49084;48.204;16.202;2023-07-13T09:15:39;3.75;;;1.67;;
62990;SDS011;49084;48.204;16.202;2023-07-13T09:18:10;1.73;;;1.63;;
62990;SDS011;49084;48.204;16.202;2023-07-13T09:20:44;2.58;;;1.40;;
62990;SDS011;49084;48.204;16.202;2023-07-13T09:23:15;2.03;;;1.50;;
62990;SDS011;49084;48.204;16.202;2023-07-13T09:25:45;3.38;;;1.45;;
62990;SDS011;49084;48.204;16.202;2023-07-13T09:28:18;4.50;;;1.65;;
62990;SDS011;49084;48.204;16.202;2023-07-13T09:33:54;3.95;;;1.60;;
62990;SDS011;49084;48.204;16.202;2023-07-13T09:38:49;1.85;;;1.70;;
62990;SDS011;49084;48.204;16.202;2023-07-13T09:41:46;5.97;;;1.90;;
62990;SDS011;49084;48.204;16.202;2023-07-13T09:44:18;1.33;;;1.33;;
62990;SDS011;49084;48.204;16.202;2023-07-13T09:46:58;1.98;;;1.70;;
62990;SDS011;49084;48.204;16.202;2023-07-13T09:49:29;7.20;;;2.20;;
62990;SDS011;49084;48.204;16.202;2023-07-13T09:51:59;2.78;;;2.40;;
62990;SDS011;49084;48.204;16.202;2023-07-13T09:54:27;6.18;;;2.20;;
62990;SDS011;49084;48.204;16.202;2023-07-13T09:56:54;3.25;;;2.10;;
62990;SDS011;49084;48.204;16.202;2023-07-13T09:59:22;2.03;;;1.83;;
62990;SDS011;49084;48.204;16.202;2023-07-13T10:01:50;2.97;;;2.20;;
62990;SDS011;49084;48.204;16.202;2023-07-13T10:04:19;2.28;;;1.98;;
62990;SDS011;49084;48.204;16.202;2023-07-13T10:06:52;3.67;;;2.00;;
62990;SDS011;49084;48.204;16.202;2023-07-13T10:09:31;2.05;;;1.92;;
62990;SDS011;49084;48.204;16.202;2023-07-13T10:11:57;3.92;;;2.05;;
62990;SDS011;49084;48.204;16.202;2023-07-13T10:14:23;2.58;;;2.20;;
62990;SDS011;49084;48.204;16.202;2023-07-13T10:16:51;3.10;;;2.20;;
62990;SDS011;49084;48.204;16.202;2023-07-13T10:19:27;2.22;;;2.00;;
62990;SDS011;49084;48.204;16.202;2023-07-13T10:22:44;2.58;;;1.95;;
62990;SDS011;49084;48.204;16.202;2023-07-13T10:24:52;4.47;;;1.95;;
62990;SDS011;49084;48.204;16.202;2023-07-13T10:27:20;2.33;;;2.10;;
62990;SDS011;49084;48.204;16.202;2023-07-13T10:32:42;4.32;;;2.53;;
62990;SDS011;49084;48.204;16.202;2023-07-13T10:35:10;5.07;;;2.15;;
62990;SDS011;49084;48.204;16.202;2023-07-13T10:37:47;3.03;;;2.13;;
62990;SDS011;49084;48.204;16.202;2023-07-13T10:43:04;2.88;;;2.63;;
62990;SDS011;49084;48.204;16.202;2023-07-13T10:45:36;2.38;;;2.17;;
62990;SDS011;49084;48.204;16.202;2023-07-13T10:48:03;3.60;;;2.20;;
62990;SDS011;49084;48.204;16.202;2023-07-13T10:50:30;4.57;;;1.83;;
62990;SDS011;49084;48.204;16.202;2023-07-13T10:53:15;3.90;;;2.15;;
62990;SDS011;49084;48.204;16.202;2023-07-13T10:55:57;2.33;;;2.10;;
62990;SDS011;49084;48.204;16.202;2023-07-13T10:58:37;2.63;;;2.33;;
62990;SDS011;49084;48.204;16.202;2023-07-13T11:03:32;2.08;;;1.67;;
62990;SDS011;49084;48.204;16.202;2023-07-13T11:13:55;2.22;;;1.77;;
62990;SDS011;49084;48.204;16.202;2023-07-13T11:16:37;1.85;;;1.70;;
62990;SDS011;49084;48.204;16.202;2023-07-13T11:25:21;2.13;;;1.52;;
62990;SDS011;49084;48.204;16.202;2023-07-13T11:27:38;3.25;;;1.75;;
62990;SDS011;49084;48.204;16.202;2023-07-13T11:30:13;4.20;;;1.73;;
62990;SDS011;49084;48.204;16.202;2023-07-13T11:36:04;3.08;;;1.67;;
62990;SDS011;49084;48.204;16.202;2023-07-13T11:38:36;1.73;;;1.63;;
62990;SDS011;49084;48.204;16.202;2023-07-13T11:41:17;2.10;;;1.90;;
62990;SDS011;49084;48.204;16.202;2023-07-13T11:43:49;3.67;;;1.95;;
62990;SDS011;49084;48.204;16.202;2023-07-13T11:46:18;2.00;;;1.42;;
62990;SDS011;49084;48.204;16.202;2023-07-13T11:48:49;2.40;;;1.48;;
62990;SDS011;49084;48.204;16.202;2023-07-13T11:53:56;2.83;;;1.33;;
62990;SDS011;49084;48.204;16.202;2023-07-13T11:56:25;2.17;;;1.20;;
62990;SDS011;49084;48.204;16.202;2023-07-13T11:58:51;1.90;;;1.38;;
62990;SDS011;49084;48.204;16.202;2023-07-13T12:01:23;1.83;;;1.70;;
62990;SDS011;49084;48.204;16.202;2023-07-13T12:03:51;3.72;;;1.63;;
62990;SDS011;49084;48.204;16.202;2023-07-13T12:06:24;4.53;;;1.60;;
62990;SDS011;49084;48.204;16.202;2023-07-13T12:08:50;2.08;;;1.30;;
62990;SDS011;49084;48.204;16.202;2023-07-13T12:11:17;1.73;;;1.17;;
62990;SDS011;49084;48.204;16.202;2023-07-13T12:13:43;4.90;;;1.45;;
62990;SDS011;49084;48.204;16.202;2023-07-13T12:18:47;2.80;;;1.55;;
62990;SDS011;49084;48.204;16.202;2023-07-13T12:21:14;2.17;;;1.70;;
62990;SDS011;49084;48.204;16.202;2023-07-13T12:23:44;1.73;;;1.30;;
62990;SDS011;49084;48.204;16.202;2023-07-13T12:26:12;2.00;;;1.50;;
62990;SDS011;49084;48.204;16.202;2023-07-13T12:33:58;2.20;;;1.60;;
62990;SDS011;49084;48.204;16.202;2023-07-13T12:36:32;2.60;;;1.35;;
62990;SDS011;49084;48.204;16.202;2023-07-13T12:39:03;6.63;;;1.75;;
62990;SDS011;49084;48.204;16.202;2023-07-13T12:41:37;3.45;;;1.48;;
62990;SDS011;49084;48.204;16.202;2023-07-13T12:44:02;1.85;;;1.40;;
62990;SDS011;49084;48.204;16.202;2023-07-13T12:46:29;2.13;;;1.48;;
62990;SDS011;49084;48.204;16.202;2023-07-13T12:48:56;2.92;;;1.40;;
62990;SDS011;49084;48.204;16.202;2023-07-13T12:51:24;2.97;;;1.63;;
62990;SDS011;49084;48.204;16.202;2023-07-13T12:53:55;3.60;;;1.42;;
62990;SDS011;49084;48.204;16.202;2023-07-13T12:56:25;2.42;;;1.60;;
62990;SDS011;49084;48.204;16.202;2023-07-13T12:58:57;2.35;;;1.48;;
62990;SDS011;49084;48.204;16.202;2023-07-13T13:01:28;3.28;;;1.50;;
62990;SDS011;49084;48.204;16.202;2023-07-13T13:03:57;1.33;;;1.25;;
62990;SDS011;49084;48.204;16.202;2023-07-13T13:06:31;1.88;;;1.35;;
62990;SDS011;49084;48.204;16.202;2023-07-13T13:08:58;2.30;;;1.70;;
62990;SDS011;49084;48.204;16.202;2023-07-13T13:11:25;2.03;;;1.55;;
62990;SDS011;49084;48.204;16.202;2023-07-13T13:13:52;1.60;;;1.50;;
62990;SDS011;49084;48.204;16.202;2023-07-13T13:18:54;2.10;;;1.48;;
62990;SDS011;49084;48.204;16.202;2023-07-13T13:21:24;2.08;;;1.27;;
62990;SDS011;49084;48.204;16.202;2023-07-13T13:23:51;5.15;;;1.48;;
62990;SDS011;49084;48.204;16.202;2023-07-13T13:26:18;1.45;;;1.30;;
62990;SDS011;49084;48.204;16.202;2023-07-13T13:28:45;1.20;;;1.20;;
62990;SDS011;49084;48.204;16.202;2023-07-13T13:31:13;3.30;;;1.42;;
62990;SDS011;49084;48.204;16.202;2023-07-13T13:33:44;1.65;;;1.25;;
62990;SDS011;49084;48.204;16.202;2023-07-13T13:36:20;3.80;;;1.40;;
62990;SDS011;49084;48.204;16.202;2023-07-13T13:38:49;2.95;;;1.60;;
62990;SDS011;49084;48.204;16.202;2023-07-13T13:41:15;1.38;;;1.30;;
62990;SDS011;49084;48.204;16.202;2023-07-13T13:43:42;1.85;;;1.30;;
62990;SDS011;49084;48.204;16.202;2023-07-13T13:46:16;2.08;;;1.58;;
62990;SDS011;49084;48.204;16.202;2023-07-13T13:48:44;2.05;;;1.50;;
62990;SDS011;49084;48.204;16.202;2023-07-13T13:51:17;4.15;;;1.38;;
62990;SDS011;49084;48.204;16.202;2023-07-13T13:53:48;2.15;;;1.23;;
62990;SDS011;49084;48.204;16.202;2023-07-13T13:56:15;2.60;;;1.42;;
62990;SDS011;49084;48.204;16.202;2023-07-13T13:58:42;1.98;;;1.20;;
62990;SDS011;49084;48.204;16.202;2023-07-13T14:01:21;1.92;;;1.20;;
62990;SDS011;49084;48.204;16.202;2023-07-13T14:03:49;3.10;;;1.45;;
62990;SDS011;49084;48.204;16.202;2023-07-13T14:06:16;2.42;;;1.20;;
62990;SDS011;49084;48.204;16.202;2023-07-13T14:08:42;3.20;;;1.45;;
62990;SDS011;49084;48.204;16.202;2023-07-13T14:11:15;4.78;;;1.58;;
62990;SDS011;49084;48.204;16.202;2023-07-13T14:13:43;3.67;;;1.30;;
62990;SDS011;49084;48.204;16.202;2023-07-13T14:16:15;2.00;;;1.33;;
62990;SDS011;49084;48.204;16.202;2023-07-13T14:18:46;1.90;;;1.52;;
62990;SDS011;49084;48.204;16.202;2023-07-13T14:21:21;3.22;;;1.45;;
62990;SDS011;49084;48.204;16.202;2023-07-13T14:23:48;3.00;;;1.40;;
62990;SDS011;49084;48.204;16.202;2023-07-13T14:26:16;1.30;;;1.15;;
62990;SDS011;49084;48.204;16.202;2023-07-13T14:28:44;3.00;;;1.27;;
62990;SDS011;49084;48.204;16.202;2023-07-13T14:31:12;1.70;;;1.10;;
62990;SDS011;49084;48.204;16.202;2023-07-13T14:33:39;3.38;;;1.60;;
62990;SDS011;49084;48.204;16.202;2023-07-13T14:36:13;1.95;;;1.27;;
62990;SDS011;49084;48.204;16.202;2023-07-13T14:38:52;1.48;;;1.33;;
62990;SDS011;49084;48.204;16.202;2023-07-13T14:41:18;2.58;;;1.40;;
62990;SDS011;49084;48.204;16.202;2023-07-13T14:43:45;1.48;;;1.25;;
62990;SDS011;49084;48.204;16.202;2023-07-13T14:46:32;1.40;;;1.10;;
62990;SDS011;49084;48.204;16.202;2023-07-13T14:49:09;4.60;;;1.42;;
62990;SDS011;49084;48.204;16.202;2023-07-13T14:51:51;6.55;;;1.50;;
62990;SDS011;49084;48.204;16.202;2023-07-13T14:54:17;2.85;;;1.20;;
62990;SDS011;49084;48.204;16.202;2023-07-13T14:56:43;5.15;;;1.77;;
62990;SDS011;49084;48.204;16.202;2023-07-13T14:59:09;2.92;;;1.60;;
62990;SDS011;49084;48.204;16.202;2023-07-13T15:01:36;3.55;;;1.50;;
62990;SDS011;49084;48.204;16.202;2023-07-13T15:04:03;2.20;;;1.63;;
62990;SDS011;49084;48.204;16.202;2023-07-13T15:06:30;3.50;;;1.60;;
62990;SDS011;49084;48.204;16.202;2023-07-13T15:08:56;2.47;;;1.35;;
62990;SDS011;49084;48.204;16.202;2023-07-13T15:11:22;3.97;;;1.58;;
62990;SDS011;49084;48.204;16.202;2023-07-13T15:13:49;3.45;;;1.63;;
62990;SDS011;49084;48.204;16.202;2023-07-13T15:18:49;4.00;;;1.40;;
62990;SDS011;49084;48.204;16.202;2023-07-13T15:21:22;6.38;;;1.63;;
62990;SDS011;49084;48.204;16.202;2023-07-13T15:23:50;2.83;;;2.10;;
62990;SDS011;49084;48.204;16.202;2023-07-13T15:26:16;1.95;;;1.42;;
62990;SDS011;49084;48.204;16.202;2023-07-13T15:28:43;6.18;;;2.00;;
62990;SDS011;49084;48.204;16.202;2023-07-13T15:34:04;4.38;;;1.80;;
62990;SDS011;49084;48.204;16.202;2023-07-13T15:36:37;3.55;;;1.83;;
62990;SDS011;49084;48.204;16.202;2023-07-13T15:39:02;1.95;;;1.42;;
62990;SDS011;49084;48.204;16.202;2023-07-13T15:41:28;3.10;;;1.60;;
62990;SDS011;49084;48.204;16.202;2023-07-13T15:43:55;2.92;;;1.17;;
62990;SDS011;49084;48.204;16.202;2023-07-13T15:46:23;1.75;;;1.52;;
62990;SDS011;49084;48.204;16.202;2023-07-13T15:48:50;3.10;;;1.50;;
62990;SDS011;49084;48.204;16.202;2023-07-13T15:53:45;2.15;;;1.70;;
62990;SDS011;49084;48.204;16.202;2023-07-13T15:56:24;2.65;;;1.65;;